createdAt,value
2022-09-02T00:01:30.415Z,100.00
2022-09-02T00:04:03.240Z,100.00
2022-09-02T00:06:31.610Z,100.00
2022-09-02T00:08:59.717Z,100.00
2022-09-02T00:11:29.144Z,100.00
2022-09-02T00:13:57.274Z,100.00
2022-09-02T00:16:25.306Z,100.00
2022-09-02T00:18:53.688Z,100.00
2022-09-02T00:21:22.069Z,100.00
2022-09-02T00:23:49.522Z,100.00
2022-09-02T00:26:17.253Z,100.00
2022-09-02T00:28:51.219Z,100.00
2022-09-02T00:31:23.642Z,100.00
2022-09-02T00:33:51.846Z,100.00
2022-09-02T00:36:18.921Z,100.00
2022-09-02T00:38:46.405Z,100.00
2022-09-02T00:41:14.007Z,100.00
2022-09-02T00:43:45.408Z,100.00
2022-09-02T00:46:14.686Z,100.00
2022-09-02T00:48:56.012Z,100.00
2022-09-02T00:51:24.508Z,100.00
2022-09-02T00:53:51.656Z,100.00
2022-09-02T00:56:26.791Z,100.00
2022-09-02T00:58:55.882Z,100.00
2022-09-02T01:01:23.281Z,100.00
2022-09-02T01:03:51.043Z,100.00
2022-09-02T01:06:24.468Z,100.00
2022-09-02T01:09:07.498Z,100.00
2022-09-02T01:11:48.089Z,100.00
2022-09-02T01:14:16.723Z,100.00
2022-09-02T01:16:50.839Z,100.00
2022-09-02T01:19:49.797Z,100.00
2022-09-02T01:22:18.478Z,100.00
2022-09-02T01:24:45.452Z,100.00
2022-09-02T01:27:16.333Z,100.00
2022-09-02T01:29:43.801Z,100.00
2022-09-02T01:32:12.151Z,100.00
2022-09-02T01:34:38.968Z,100.00
2022-09-02T01:37:06.091Z,100.00
2022-09-02T01:39:33.306Z,100.00
2022-09-02T01:42:01.148Z,100.00
2022-09-02T01:44:28.476Z,100.00
2022-09-02T01:46:56.080Z,100.00
2022-09-02T01:49:23.686Z,100.00
2022-09-02T01:51:54.834Z,100.00
2022-09-02T01:54:23.132Z,100.00
2022-09-02T01:56:50.003Z,100.00
2022-09-02T01:59:18.139Z,100.00
2022-09-02T02:01:46.053Z,100.00
2022-09-02T02:04:13.649Z,100.00
2022-09-02T02:06:42.965Z,100.00
2022-09-02T02:09:11.605Z,100.00
2022-09-02T02:11:39.202Z,100.00
2022-09-02T02:14:06.422Z,100.00
2022-09-02T02:16:33.297Z,100.00
2022-09-02T02:19:00.294Z,100.00
2022-09-02T02:21:27.546Z,100.00
2022-09-02T02:23:55.159Z,100.00
2022-09-02T02:26:21.946Z,100.00
2022-09-02T02:28:49.317Z,100.00
2022-09-02T02:31:16.256Z,100.00
2022-09-02T02:33:43.133Z,100.00
2022-09-02T02:36:10.680Z,100.00
2022-09-02T02:38:38.443Z,100.00
2022-09-02T02:41:06.553Z,100.00
2022-09-02T02:43:36.999Z,100.00
2022-09-02T02:46:04.974Z,100.00
2022-09-02T02:48:33.357Z,100.00
2022-09-02T02:51:00.639Z,100.00
2022-09-02T02:53:29.726Z,100.00
2022-09-02T02:55:57.204Z,100.00
2022-09-02T02:58:24.378Z,100.00
2022-09-02T03:00:52.104Z,100.00
2022-09-02T03:03:19.930Z,100.00
2022-09-02T03:05:47.681Z,100.00
2022-09-02T03:08:15.821Z,100.00
2022-09-02T03:10:44.311Z,100.00
2022-09-02T03:13:12.128Z,100.00
2022-09-02T03:15:39.741Z,100.00
2022-09-02T03:18:07.275Z,100.00
2022-09-02T03:20:35.223Z,100.00
2022-09-02T03:23:02.230Z,100.00
2022-09-02T03:25:35.865Z,100.00
2022-09-02T03:28:04.275Z,100.00
2022-09-02T03:30:32.432Z,100.00
2022-09-02T03:33:04.058Z,100.00
2022-09-02T03:35:33.219Z,100.00
2022-09-02T03:38:01.210Z,100.00
2022-09-02T03:40:28.744Z,100.00
2022-09-02T03:43:00.198Z,100.00
2022-09-02T03:45:28.086Z,100.00
2022-09-02T03:47:55.217Z,100.00
2022-09-02T03:50:25.981Z,100.00
2022-09-02T03:52:53.680Z,100.00
2022-09-02T03:55:20.870Z,100.00
2022-09-02T03:57:48.331Z,100.00
2022-09-02T04:00:17.823Z,100.00
2022-09-02T04:02:44.874Z,100.00
2022-09-02T04:05:17.133Z,100.00
2022-09-02T04:07:47.138Z,100.00
2022-09-02T04:10:15.408Z,100.00
2022-09-02T04:12:42.652Z,100.00
2022-09-02T04:15:12.055Z,100.00
2022-09-02T04:17:41.223Z,100.00
2022-09-02T04:20:11.622Z,100.00
2022-09-02T04:22:38.537Z,100.00
2022-09-02T04:25:06.761Z,100.00
2022-09-02T04:27:35.277Z,100.00
2022-09-02T04:30:02.297Z,100.00
2022-09-02T04:32:29.343Z,100.00
2022-09-02T04:34:57.341Z,100.00
2022-09-02T04:37:24.311Z,100.00
2022-09-02T04:39:52.757Z,100.00
2022-09-02T04:42:19.961Z,100.00
2022-09-02T04:44:46.920Z,100.00
2022-09-02T04:47:13.756Z,100.00
2022-09-02T04:49:43.276Z,100.00
2022-09-02T04:52:10.709Z,100.00
2022-09-02T04:54:37.800Z,100.00
2022-09-02T04:57:05.127Z,99.25
2022-09-02T04:59:36.506Z,95.97
2022-09-02T05:02:05.229Z,87.77
2022-09-02T05:04:33.603Z,86.06
2022-09-02T05:07:03.791Z,81.58
2022-09-02T05:09:31.735Z,79.63
2022-09-02T05:11:58.827Z,77.35
2022-09-02T05:14:26.004Z,75.15
2022-09-02T05:16:54.095Z,73.57
2022-09-02T05:19:23.509Z,71.02
2022-09-02T05:21:55.340Z,65.01
2022-09-02T05:24:26.413Z,63.54
2022-09-02T05:26:53.938Z,61.49
2022-09-02T05:29:21.142Z,58.59
2022-09-02T05:31:48.920Z,54.12
2022-09-02T05:34:17.148Z,52.68
2022-09-02T05:36:44.619Z,53.20
2022-09-02T05:39:11.827Z,53.65
2022-09-02T05:41:38.904Z,51.52
2022-09-02T05:44:07.020Z,50.84
2022-09-02T05:46:35.015Z,49.18
2022-09-02T05:49:17.714Z,48.58
2022-09-02T05:51:49.377Z,46.67
2022-09-02T05:54:23.084Z,44.68
2022-09-02T05:56:54.060Z,46.07
2022-09-02T05:59:22.580Z,46.62
2022-09-02T06:01:50.122Z,45.00
2022-09-02T06:04:18.330Z,45.58
2022-09-02T06:06:45.938Z,42.95
2022-09-02T06:09:16.434Z,43.76
2022-09-02T06:11:45.736Z,45.05
2022-09-02T06:14:14.179Z,44.39
2022-09-02T06:16:42.688Z,46.71
2022-09-02T06:19:10.086Z,47.99
2022-09-02T06:21:38.384Z,50.31
2022-09-02T06:24:11.440Z,51.02
2022-09-02T06:26:39.895Z,50.00
2022-09-02T06:29:08.074Z,50.00
2022-09-02T06:31:35.931Z,47.60
2022-09-02T06:34:04.891Z,45.03
2022-09-02T06:36:31.949Z,45.69
2022-09-02T06:39:00.329Z,45.55
2022-09-02T06:41:30.301Z,44.65
2022-09-02T06:44:00.095Z,44.42
2022-09-02T06:46:37.753Z,43.76
2022-09-02T06:49:07.193Z,42.57
2022-09-02T06:51:41.127Z,43.43
2022-09-02T06:54:11.547Z,41.16
2022-09-02T06:56:44.884Z,40.46
2022-09-02T06:59:15.821Z,40.48
2022-09-02T07:01:44.290Z,40.33
2022-09-02T07:04:30.472Z,41.63
2022-09-02T07:06:58.199Z,40.85
2022-09-02T07:09:31.452Z,39.56
2022-09-02T07:12:05.094Z,35.80
2022-09-02T07:14:40.896Z,34.62
2022-09-02T07:17:10.192Z,34.20
2022-09-02T07:19:37.950Z,34.03
2022-09-02T07:22:06.350Z,32.31
2022-09-02T07:24:33.512Z,31.23
2022-09-02T07:27:00.467Z,30.33
2022-09-02T07:29:27.411Z,30.30
2022-09-02T07:31:54.801Z,31.84
2022-09-02T07:34:22.070Z,31.45
2022-09-02T07:36:49.181Z,32.22
2022-09-02T07:39:18.070Z,31.57
2022-09-02T07:41:48.304Z,31.02
2022-09-02T07:44:16.384Z,30.09
2022-09-02T07:46:44.443Z,30.98
2022-09-02T07:49:15.747Z,30.30
2022-09-02T07:51:49.161Z,31.12
2022-09-02T07:54:18.974Z,31.00
2022-09-02T07:56:45.885Z,30.82
2022-09-02T07:59:12.820Z,30.46
2022-09-02T08:01:40.399Z,29.29
2022-09-02T08:04:07.312Z,30.88
2022-09-02T08:06:35.098Z,30.77
2022-09-02T08:09:05.459Z,31.97
2022-09-02T08:11:35.435Z,31.54
2022-09-02T08:14:03.255Z,32.72
2022-09-02T08:16:30.866Z,30.96
2022-09-02T08:18:58.436Z,30.86
2022-09-02T08:21:27.955Z,31.58
2022-09-02T08:23:55.297Z,32.17
2022-09-02T08:26:22.269Z,32.72
2022-09-02T08:28:50.230Z,33.27
2022-09-02T08:31:17.376Z,32.58
2022-09-02T08:33:44.924Z,31.31
2022-09-02T08:36:14.821Z,31.86
2022-09-02T08:38:42.896Z,31.08
2022-09-02T08:41:24.009Z,30.79
2022-09-02T08:43:54.039Z,29.41
2022-09-02T08:46:26.067Z,30.11
2022-09-02T08:48:59.559Z,29.91
2022-09-02T08:51:56.385Z,30.37
2022-09-02T08:54:48.687Z,29.70
2022-09-02T08:57:15.680Z,30.00
2022-09-02T08:59:44.202Z,30.07
2022-09-02T09:02:56.798Z,30.57
2022-09-02T09:05:34.409Z,30.02
2022-09-02T09:08:14.643Z,30.03
2022-09-02T09:11:12.848Z,29.16
2022-09-02T09:14:10.509Z,27.43
2022-09-02T09:16:57.046Z,28.26
2022-09-02T09:19:47.589Z,27.36
2022-09-02T09:22:18.736Z,25.70
2022-09-02T09:24:50.185Z,24.60
2022-09-02T09:27:22.552Z,24.31
2022-09-02T09:29:51.591Z,25.82
2022-09-02T09:32:33.634Z,25.76
2022-09-02T09:35:09.125Z,25.85
2022-09-02T09:37:38.577Z,25.75
2022-09-02T09:40:21.165Z,26.93
2022-09-02T09:42:53.170Z,26.56
2022-09-02T09:45:27.944Z,25.46
2022-09-02T09:48:28.015Z,25.41
2022-09-02T09:50:57.641Z,25.44
2022-09-02T09:53:30.407Z,24.34
2022-09-02T09:56:01.700Z,26.33
2022-09-02T09:58:49.748Z,26.90
2022-09-02T10:01:35.815Z,26.40
2022-09-02T10:04:42.268Z,25.99
2022-09-02T10:06:57.945Z,27.15
2022-09-02T10:09:35.033Z,27.53
2022-09-02T10:12:05.181Z,27.47
2022-09-02T10:14:53.489Z,26.60
2022-09-02T10:17:48.349Z,25.93
2022-09-02T10:20:48.669Z,26.05
2022-09-02T10:23:36.666Z,25.72
2022-09-02T10:29:07.206Z,26.25
2022-09-02T10:31:55.988Z,25.83
2022-09-02T10:34:44.097Z,26.22
2022-09-02T10:37:27.155Z,26.50
2022-09-02T10:40:09.408Z,26.91
2022-09-02T10:43:04.632Z,27.88
2022-09-02T10:45:35.439Z,28.14
2022-09-02T10:48:20.469Z,28.39
2022-09-02T10:50:56.211Z,28.68
2022-09-02T10:53:29.404Z,28.91
2022-09-02T10:56:06.665Z,29.84
2022-09-02T10:58:33.663Z,30.07
2022-09-02T11:01:00.635Z,30.24
2022-09-02T11:03:39.214Z,30.22
2022-09-02T11:06:19.652Z,30.83
2022-09-02T11:08:57.737Z,31.18
2022-09-02T11:11:37.316Z,30.95
2022-09-02T11:14:20.990Z,30.40
2022-09-02T11:16:55.160Z,30.87
2022-09-02T11:19:59.832Z,30.13
2022-09-02T11:22:48.735Z,30.40
2022-09-02T11:25:29.568Z,29.95
2022-09-02T11:28:29.205Z,30.60
2022-09-02T11:31:00.480Z,30.41
2022-09-02T11:33:43.479Z,30.24
2022-09-02T11:36:11.500Z,31.00
2022-09-02T11:38:56.207Z,31.09
2022-09-02T11:41:35.815Z,31.07
2022-09-02T11:44:22.174Z,31.57
2022-09-02T11:47:29.399Z,31.88
2022-09-02T11:50:33.705Z,31.57
2022-09-02T11:53:30.977Z,31.26
2022-09-02T11:56:18.369Z,30.75
2022-09-02T11:58:53.277Z,31.47
2022-09-02T12:01:43.648Z,31.99
2022-09-02T12:04:56.054Z,31.74
2022-09-02T12:07:08.969Z,32.79
2022-09-02T12:09:49.836Z,32.63
2022-09-02T12:12:39.061Z,32.15
2022-09-02T12:15:06.687Z,32.59
2022-09-02T12:17:40.574Z,31.93
2022-09-02T12:20:29.085Z,31.82
2022-09-02T12:22:56.244Z,31.88
2022-09-02T12:25:26.982Z,32.24
2022-09-02T12:28:18.813Z,34.25
2022-09-02T12:30:55.567Z,33.61
2022-09-02T12:33:51.912Z,34.04
2022-09-02T12:36:37.014Z,35.12
2022-09-02T12:39:30.763Z,34.53
2022-09-02T12:41:57.916Z,35.28
2022-09-02T12:45:04.719Z,36.27
2022-09-02T12:47:50.647Z,35.37
2022-09-02T12:50:28.516Z,35.05
2022-09-02T12:53:25.864Z,34.53
2022-09-02T12:56:13.056Z,33.64
2022-09-02T12:58:46.498Z,34.28
2022-09-02T13:01:19.681Z,34.24
2022-09-02T13:03:59.861Z,33.08
2022-09-02T13:06:47.728Z,33.25
2022-09-02T13:09:41.440Z,34.61
2022-09-02T13:12:45.876Z,35.39
2022-09-02T13:15:40.898Z,35.24
2022-09-02T13:18:26.467Z,36.00
2022-09-02T13:21:20.868Z,36.51
2022-09-02T13:24:10.334Z,36.25
2022-09-02T13:26:59.122Z,36.22
2022-09-02T13:29:56.548Z,36.36
2022-09-02T13:32:29.717Z,36.34
2022-09-02T13:35:01.265Z,35.49
2022-09-02T13:37:36.506Z,36.25
2022-09-02T13:40:26.371Z,37.56
2022-09-02T13:42:58.469Z,38.03
2022-09-02T13:45:35.606Z,38.35
2022-09-02T13:48:08.523Z,38.89
2022-09-02T13:50:37.424Z,39.87
2022-09-02T13:55:57.823Z,39.75
2022-09-02T13:58:31.414Z,40.01
2022-09-02T14:01:17.673Z,40.61
2022-09-02T14:03:56.915Z,39.92
2022-09-02T14:06:28.508Z,40.37
2022-09-02T14:09:05.055Z,40.01
2022-09-02T14:11:39.545Z,39.66
2022-09-02T14:14:07.075Z,39.85
2022-09-02T14:16:36.229Z,40.05
2022-09-02T14:19:24.376Z,40.94
2022-09-02T14:21:53.903Z,40.61
2022-09-02T14:24:22.295Z,41.42
2022-09-02T14:26:53.208Z,40.92
2022-09-02T14:29:21.608Z,41.27
2022-09-02T14:32:09.001Z,41.53
2022-09-02T14:34:47.157Z,41.93
2022-09-02T14:37:28.744Z,42.44
2022-09-02T14:40:12.690Z,42.55
2022-09-02T14:42:55.231Z,42.15
2022-09-02T14:45:30.752Z,42.02
2022-09-02T14:48:01.748Z,41.76
2022-09-02T14:50:36.539Z,41.77
2022-09-02T14:53:10.259Z,41.33
2022-09-02T14:55:45.736Z,41.61
2022-09-02T14:58:12.733Z,41.87
2022-09-02T15:00:39.795Z,42.11
2022-09-02T15:03:07.660Z,42.64
2022-09-02T15:05:34.559Z,42.94
2022-09-02T15:08:01.664Z,43.20
2022-09-02T15:10:28.475Z,43.61
2022-09-02T15:12:57.619Z,43.41
2022-09-02T15:15:25.130Z,43.79
2022-09-02T15:17:51.932Z,44.05
2022-09-02T15:20:18.853Z,44.49
2022-09-02T15:22:45.843Z,44.23
2022-09-02T15:25:12.840Z,44.43
2022-09-02T15:27:39.674Z,44.11
2022-09-02T15:30:09.372Z,44.46
2022-09-02T15:32:37.770Z,44.75
2022-09-02T15:35:06.947Z,45.04
2022-09-02T15:37:38.167Z,45.08
2022-09-02T15:40:07.934Z,45.22
2022-09-02T15:42:36.723Z,45.01
2022-09-02T15:45:05.897Z,45.18
2022-09-02T15:47:35.673Z,45.24
2022-09-02T15:50:03.648Z,45.33
2022-09-02T15:52:30.441Z,45.35
2022-09-02T15:54:57.235Z,45.32
2022-09-02T15:57:24.291Z,45.86
2022-09-02T15:59:51.581Z,46.04
2022-09-02T16:02:18.469Z,46.14
2022-09-02T16:04:45.586Z,46.10
2022-09-02T16:07:15.379Z,46.48
2022-09-02T16:09:44.483Z,46.62
2022-09-02T16:12:11.530Z,46.60
2022-09-02T16:14:38.456Z,46.86
2022-09-02T16:17:05.347Z,47.12
2022-09-02T16:19:32.334Z,47.71
2022-09-02T16:21:59.356Z,47.58
2022-09-02T16:24:26.418Z,47.72
2022-09-02T16:26:53.454Z,48.06
2022-09-02T16:29:20.930Z,48.34
2022-09-02T16:34:36.286Z,48.19
2022-09-02T16:37:03.097Z,48.58
2022-09-02T16:39:30.063Z,48.94
2022-09-02T16:41:58.245Z,49.52
2022-09-02T16:44:26.028Z,49.88
2022-09-02T16:46:53.317Z,50.45
2022-09-02T16:49:22.128Z,50.69
2022-09-02T16:51:57.826Z,51.00
2022-09-02T16:54:30.791Z,51.56
2022-09-02T16:56:59.381Z,51.91
2022-09-02T16:59:26.391Z,51.46
2022-09-02T17:01:53.262Z,51.02
2022-09-02T17:04:20.127Z,50.88
2022-09-02T17:06:47.268Z,50.02
2022-09-02T17:09:14.137Z,50.10
2022-09-02T17:11:42.639Z,50.33
2022-09-02T17:14:16.562Z,49.77
2022-09-02T17:16:49.075Z,49.55
2022-09-02T17:19:21.795Z,49.37
2022-09-02T17:21:54.240Z,49.54
2022-09-02T17:24:24.655Z,49.38
2022-09-02T17:26:54.459Z,49.97
2022-09-02T17:32:10.247Z,50.29
2022-09-02T17:34:37.212Z,50.37
2022-09-02T17:37:05.330Z,50.24
2022-09-02T17:39:34.234Z,50.23
2022-09-02T17:42:02.375Z,50.80
2022-09-02T17:44:35.866Z,50.76
2022-09-02T17:47:08.527Z,50.68
2022-09-02T17:49:36.840Z,51.00
2022-09-02T17:52:05.489Z,51.46
2022-09-02T17:54:32.343Z,51.35
2022-09-02T17:57:17.423Z,51.34
2022-09-02T18:00:10.822Z,51.59
2022-09-02T18:03:13.440Z,51.78
2022-09-02T18:06:09.348Z,52.20
2022-09-02T18:08:42.122Z,52.37
2022-09-02T18:11:09.219Z,52.82
2022-09-02T18:13:54.214Z,53.25
2022-09-02T18:16:42.284Z,52.96
2022-09-02T18:19:24.795Z,53.16
2022-09-02T18:22:12.971Z,54.18
2022-09-02T18:24:48.570Z,55.20
2022-09-02T18:27:27.865Z,55.59
2022-09-02T18:30:03.646Z,55.81
2022-09-02T18:32:59.125Z,56.28
2022-09-02T18:35:41.338Z,56.42
2022-09-02T18:38:49.588Z,56.98
2022-09-02T18:41:26.634Z,56.97
2022-09-02T18:44:24.922Z,57.24
2022-09-02T18:46:59.155Z,58.22
2022-09-02T18:49:28.539Z,58.56
2022-09-02T18:51:59.856Z,59.03
2022-09-02T18:54:46.862Z,59.18
2022-09-02T18:57:14.871Z,59.37
2022-09-02T18:59:56.315Z,59.91
2022-09-02T19:02:26.591Z,59.80
2022-09-02T19:04:57.318Z,60.34
2022-09-02T19:07:43.688Z,60.90
2022-09-02T19:10:10.667Z,61.34
2022-09-02T19:12:40.389Z,61.43
2022-09-02T19:15:09.895Z,62.31
2022-09-02T19:17:40.264Z,63.17
2022-09-02T19:20:08.590Z,64.51
2022-09-02T19:22:46.199Z,66.39
2022-09-02T19:25:17.663Z,67.53
2022-09-02T19:27:46.347Z,69.12
2022-09-02T19:30:18.970Z,69.75
2022-09-02T19:32:50.343Z,70.28
2022-09-02T19:35:24.895Z,71.02
2022-09-02T19:37:53.819Z,73.04
2022-09-02T19:40:23.541Z,74.14
2022-09-02T19:42:52.784Z,76.16
2022-09-02T19:45:21.825Z,76.12
2022-09-02T19:48:06.419Z,76.35
2022-09-02T19:50:42.191Z,76.80
2022-09-02T19:53:19.453Z,77.17
2022-09-02T19:55:46.826Z,77.85
2022-09-02T19:58:14.024Z,78.55
2022-09-02T20:00:45.013Z,79.69
2022-09-02T20:03:13.081Z,80.13
2022-09-02T20:05:40.812Z,80.69
2022-09-02T20:08:10.847Z,80.81
2022-09-02T20:10:40.924Z,82.46
2022-09-02T20:13:12.334Z,83.44
2022-09-02T20:15:40.039Z,83.66
2022-09-02T20:18:15.568Z,83.76
2022-09-02T20:20:47.176Z,83.92
2022-09-02T20:23:17.458Z,84.18
2022-09-02T20:26:15.066Z,84.66
2022-09-02T20:28:56.290Z,85.87
2022-09-02T20:31:43.520Z,86.50
2022-09-02T20:34:17.970Z,87.04
2022-09-02T20:37:02.363Z,86.98
2022-09-02T20:39:38.108Z,87.43
2022-09-02T20:42:29.509Z,88.00
2022-09-02T20:45:08.406Z,88.86
2022-09-02T20:48:25.354Z,88.98
2022-09-02T20:51:12.592Z,88.59
2022-09-02T20:54:04.656Z,89.02
2022-09-02T20:56:59.782Z,88.92
2022-09-02T20:59:48.011Z,89.98
2022-09-02T21:02:20.303Z,90.38
2022-09-02T21:04:53.171Z,90.64
2022-09-02T21:07:26.442Z,90.95
2022-09-02T21:10:06.747Z,91.43
2022-09-02T21:12:43.923Z,91.34
2022-09-02T21:15:30.211Z,91.29
2022-09-02T21:18:09.255Z,92.04
2022-09-02T21:21:03.895Z,92.28
2022-09-02T21:23:35.423Z,92.15
2022-09-02T21:26:18.485Z,92.51
2022-09-02T21:28:56.754Z,92.98
2022-09-02T21:31:31.474Z,92.77
2022-09-02T21:34:05.157Z,92.81
2022-09-02T21:36:36.986Z,92.57
2022-09-02T21:39:10.098Z,93.00
2022-09-02T21:41:42.087Z,93.03
2022-09-02T21:44:40.747Z,93.53
2022-09-02T21:47:38.678Z,93.61
2022-09-02T21:51:00.132Z,94.20
2022-09-02T21:54:15.020Z,95.02
2022-09-02T21:57:15.718Z,95.69
2022-09-02T22:00:08.686Z,96.73
2022-09-02T22:02:48.717Z,97.08
2022-09-02T22:05:26.012Z,97.61
2022-09-02T22:08:03.187Z,98.20
2022-09-02T22:10:50.058Z,98.17
2022-09-02T22:13:17.116Z,99.31
2022-09-02T22:16:05.073Z,99.15
2022-09-02T22:18:40.368Z,99.86
2022-09-02T22:21:25.719Z,100.00
2022-09-02T22:23:55.663Z,100.00
2022-09-02T22:27:04.884Z,100.00
2022-09-02T22:29:41.196Z,100.00
2022-09-02T22:32:12.433Z,100.00
2022-09-02T22:34:50.619Z,100.00
2022-09-02T22:37:25.995Z,100.00
2022-09-02T22:39:56.586Z,100.00
2022-09-02T22:42:33.277Z,100.00
2022-09-02T22:45:29.078Z,100.00
2022-09-02T22:48:21.639Z,100.00
2022-09-02T22:51:18.886Z,100.00
2022-09-02T22:53:48.090Z,100.00
2022-09-02T22:56:26.135Z,100.00
2022-09-02T22:59:01.609Z,100.00
2022-09-02T23:01:43.657Z,100.00
2022-09-02T23:04:25.071Z,100.00
2022-09-02T23:07:05.035Z,100.00
2022-09-02T23:09:33.868Z,100.00
2022-09-02T23:12:09.276Z,100.00
2022-09-02T23:15:10.394Z,100.00
2022-09-02T23:17:43.183Z,100.00
2022-09-02T23:20:26.997Z,100.00
2022-09-02T23:23:22.866Z,100.00
2022-09-02T23:26:19.901Z,100.00
2022-09-02T23:29:08.099Z,100.00
2022-09-02T23:31:50.765Z,100.00
2022-09-02T23:34:35.195Z,100.00
2022-09-02T23:37:25.190Z,100.00
2022-09-02T23:40:22.513Z,100.00
2022-09-02T23:42:49.591Z,100.00
2022-09-02T23:45:23.821Z,100.00
2022-09-02T23:48:06.600Z,100.00
2022-09-02T23:51:10.547Z,100.00
2022-09-02T23:53:47.586Z,100.00
2022-09-02T23:56:33.719Z,100.00
2022-09-02T23:59:12.831Z,100.00
